createdAt,value
2019-05-09T00:01:19.629Z,51.93
2019-05-09T00:02:19.544Z,51.26
2019-05-09T00:04:14.854Z,51.19
2019-05-09T00:05:14.745Z,51.86
2019-05-09T00:07:10.957Z,51.09
2019-05-09T00:08:10.812Z,51.29
2019-05-09T00:10:06.093Z,50.61
2019-05-09T00:11:05.991Z,50.99
2019-05-09T00:13:03.327Z,50.81
2019-05-09T00:14:01.165Z,50.81
2019-05-09T00:15:56.470Z,50.81
2019-05-09T00:16:56.385Z,50.99
2019-05-09T00:18:53.424Z,50.90
2019-05-09T00:19:53.842Z,50.71
2019-05-09T00:21:46.873Z,50.90
2019-05-09T00:22:46.770Z,50.71
2019-05-09T00:24:42.048Z,50.90
2019-05-09T00:25:43.282Z,50.81
2019-05-09T00:27:38.076Z,50.51
2019-05-09T00:28:37.965Z,50.68
2019-05-09T00:30:33.269Z,50.68
2019-05-09T00:31:33.844Z,50.51
2019-05-09T00:33:28.442Z,50.59
2019-05-09T00:34:28.344Z,50.68
2019-05-09T00:36:23.623Z,50.51
2019-05-09T00:37:23.872Z,50.90
2019-05-09T00:39:19.669Z,50.23
2019-05-09T00:40:19.563Z,49.94
2019-05-09T00:42:14.825Z,49.84
2019-05-09T00:43:14.741Z,49.94
2019-05-09T00:45:10.059Z,49.55
2019-05-09T00:46:09.946Z,49.46
2019-05-09T00:48:06.107Z,49.74
2019-05-09T00:49:06.017Z,49.94
2019-05-09T00:51:03.287Z,49.36
2019-05-09T00:52:03.381Z,49.55
2019-05-09T00:53:56.502Z,49.72
2019-05-09T00:54:56.418Z,49.43
2019-05-09T00:56:53.784Z,50.10
2019-05-09T00:57:53.462Z,50.40
2019-05-09T00:59:49.194Z,50.30
2019-05-09T01:00:49.109Z,49.91
2019-05-09T01:02:44.397Z,50.01
2019-05-09T01:03:44.305Z,50.10
2019-05-09T01:05:40.436Z,50.30
2019-05-09T01:06:40.349Z,50.20
2019-05-09T01:08:35.635Z,49.82
2019-05-09T01:09:35.532Z,49.72
2019-05-09T01:11:33.173Z,49.43
2019-05-09T01:12:30.725Z,49.82
2019-05-09T01:14:26.004Z,49.53
2019-05-09T01:15:25.908Z,49.82
2019-05-09T01:17:21.159Z,49.82
2019-05-09T01:18:21.080Z,49.53
2019-05-09T01:20:16.363Z,49.53
2019-05-09T01:21:16.263Z,49.33
2019-05-09T01:23:11.530Z,49.43
2019-05-09T01:24:13.726Z,49.72
2019-05-09T01:26:06.716Z,49.41
2019-05-09T01:27:06.616Z,49.69
2019-05-09T01:29:04.171Z,50.27
2019-05-09T01:30:04.318Z,49.99
2019-05-09T01:31:57.095Z,50.01
2019-05-09T01:32:56.995Z,49.91
2019-05-09T01:34:53.082Z,50.01
2019-05-09T01:35:54.085Z,50.01
2019-05-09T01:37:47.482Z,49.82
2019-05-09T01:38:47.380Z,50.10
2019-05-09T01:40:43.843Z,49.72
2019-05-09T01:41:43.626Z,49.53
2019-05-09T01:43:39.514Z,49.63
2019-05-09T01:44:38.757Z,49.53
2019-05-09T01:46:34.544Z,49.63
2019-05-09T01:47:34.305Z,49.72
2019-05-09T01:49:29.653Z,49.43
2019-05-09T01:50:29.314Z,49.36
2019-05-09T01:52:24.551Z,49.43
2019-05-09T01:53:24.470Z,49.24
2019-05-09T01:55:19.745Z,49.72
2019-05-09T01:56:20.075Z,49.31
2019-05-09T01:58:14.915Z,50.08
2019-05-09T01:59:14.828Z,50.37
2019-05-09T02:01:10.130Z,50.37
2019-05-09T02:02:10.023Z,50.56
2019-05-09T02:04:06.156Z,50.66
2019-05-09T02:05:06.074Z,50.46
2019-05-09T02:07:03.816Z,50.85
2019-05-09T02:08:03.239Z,50.85
2019-05-09T02:09:56.527Z,50.56
2019-05-09T02:10:56.437Z,50.66
2019-05-09T02:12:53.819Z,50.76
2019-05-09T02:13:53.538Z,50.95
2019-05-09T02:15:48.550Z,51.04
2019-05-09T02:16:48.463Z,50.82
2019-05-09T02:18:44.123Z,51.11
2019-05-09T02:19:44.010Z,51.59
2019-05-09T02:21:38.914Z,51.98
2019-05-09T02:22:38.816Z,51.98
2019-05-09T02:24:34.091Z,51.31
2019-05-09T02:25:33.991Z,51.59
2019-05-09T02:27:29.237Z,51.31
2019-05-09T02:28:29.160Z,51.69
2019-05-09T02:30:25.410Z,51.98
2019-05-09T02:31:24.833Z,52.14
2019-05-09T02:33:19.638Z,52.24
2019-05-09T02:34:19.548Z,52.14
2019-05-09T02:36:14.833Z,52.14
2019-05-09T02:37:14.732Z,52.05
2019-05-09T02:39:12.339Z,52.34
2019-05-09T02:40:12.246Z,52.43
2019-05-09T02:42:13.373Z,52.72
2019-05-09T02:43:09.926Z,52.81
2019-05-09T02:45:04.365Z,53.20
2019-05-09T02:46:04.277Z,53.11
2019-05-09T02:47:59.562Z,53.58
2019-05-09T02:48:59.701Z,53.30
2019-05-09T02:50:54.730Z,53.97
2019-05-09T02:51:54.643Z,53.78
2019-05-09T02:53:49.926Z,54.35
2019-05-09T02:54:50.295Z,54.06
2019-05-09T02:56:45.097Z,54.06
2019-05-09T02:57:45.013Z,53.78
2019-05-09T02:59:41.190Z,54.25
2019-05-09T03:00:41.091Z,54.06
2019-05-09T03:02:38.406Z,54.61
2019-05-09T03:03:39.098Z,54.83
2019-05-09T03:05:31.561Z,54.45
2019-05-09T03:06:31.457Z,54.45
2019-05-09T03:08:29.557Z,54.74
2019-05-09T03:09:28.669Z,54.74
2019-05-09T03:11:22.749Z,54.74
2019-05-09T03:12:34.504Z,54.74
2019-05-09T03:14:19.526Z,54.93
2019-05-09T03:15:18.588Z,55.12
2019-05-09T03:17:13.102Z,55.60
2019-05-09T03:18:13.007Z,55.32
2019-05-09T03:20:09.417Z,56.18
2019-05-09T03:21:09.155Z,55.96
2019-05-09T03:23:03.501Z,57.01
2019-05-09T03:24:03.408Z,56.92
2019-05-09T03:25:59.122Z,57.21
2019-05-09T03:26:59.517Z,57.11
2019-05-09T03:28:53.852Z,57.21
2019-05-09T03:29:53.755Z,57.11
2019-05-09T03:31:50.281Z,56.85
2019-05-09T03:32:49.216Z,57.14
2019-05-09T03:34:47.883Z,57.04
2019-05-09T03:35:48.192Z,57.33
2019-05-09T03:36:47.747Z,57.14
2019-05-09T03:37:48.075Z,57.04
2019-05-09T03:38:47.644Z,57.14
2019-05-09T03:39:47.932Z,57.33
2019-05-09T03:40:47.777Z,57.23
2019-05-09T03:41:48.759Z,57.14
2019-05-09T03:42:48.633Z,57.71
2019-05-09T03:43:48.243Z,57.52
2019-05-09T03:44:47.661Z,57.14
2019-05-09T03:45:48.054Z,57.04
2019-05-09T03:46:47.607Z,57.59
2019-05-09T03:47:47.842Z,57.43
2019-05-09T03:48:47.799Z,57.23
2019-05-09T03:49:47.639Z,57.52
2019-05-09T03:50:48.653Z,57.40
2019-05-09T03:51:48.202Z,57.40
2019-05-09T03:52:47.821Z,57.88
2019-05-09T03:53:48.438Z,58.07
2019-05-09T03:54:47.737Z,57.97
2019-05-09T03:55:47.466Z,57.97
2019-05-09T03:56:47.912Z,58.07
2019-05-09T03:57:47.621Z,58.17
2019-05-09T03:58:47.471Z,58.07
2019-05-09T03:59:47.991Z,57.88
2019-05-09T04:00:47.860Z,58.45
2019-05-09T04:01:47.839Z,58.45
2019-05-09T04:02:47.518Z,58.94
2019-05-09T04:03:47.955Z,59.03
2019-05-09T04:04:47.567Z,58.71
2019-05-09T04:05:56.607Z,59.12
2019-05-09T04:06:47.831Z,58.91
2019-05-09T04:07:47.659Z,58.74
2019-05-09T04:08:48.020Z,58.91
2019-05-09T04:09:45.338Z,58.71
2019-05-09T04:10:47.031Z,58.91
2019-05-09T04:11:45.448Z,59.19
2019-05-09T04:12:53.886Z,59.19
2019-05-09T04:13:45.149Z,59.19
2019-05-09T04:14:45.072Z,59.38
2019-05-09T04:15:44.930Z,59.19
2019-05-09T04:16:44.865Z,59.29
2019-05-09T04:17:44.789Z,59.19
2019-05-09T04:18:44.727Z,59.09
2019-05-09T04:19:44.658Z,59.19
2019-05-09T04:20:44.588Z,59.29
2019-05-09T04:21:44.515Z,59.29
2019-05-09T04:22:44.451Z,59.09
2019-05-09T04:23:44.385Z,59.29
2019-05-09T04:24:44.337Z,59.38
2019-05-09T04:25:44.246Z,59.38
2019-05-09T04:26:44.180Z,59.09
2019-05-09T04:27:44.114Z,59.19
2019-05-09T04:28:44.076Z,59.38
2019-05-09T04:29:43.971Z,59.29
2019-05-09T04:30:43.901Z,59.09
2019-05-09T04:31:43.837Z,59.19
2019-05-09T04:32:43.765Z,58.94
2019-05-09T04:33:43.702Z,59.03
2019-05-09T04:34:43.634Z,58.94
2019-05-09T04:35:43.563Z,58.94
2019-05-09T04:36:43.525Z,59.03
2019-05-09T04:37:43.434Z,58.36
2019-05-09T04:38:43.364Z,58.17
2019-05-09T04:39:43.292Z,58.17
2019-05-09T04:40:44.716Z,58.20
2019-05-09T04:41:43.152Z,58.10
2019-05-09T04:42:44.522Z,58.10
2019-05-09T04:43:43.038Z,58.10
2019-05-09T04:44:42.958Z,58.10
2019-05-09T04:45:42.885Z,58.10
2019-05-09T04:46:42.815Z,58.17
2019-05-09T04:47:43.548Z,58.10
2019-05-09T04:48:42.681Z,57.88
2019-05-09T04:49:45.132Z,57.97
2019-05-09T04:50:42.544Z,58.29
2019-05-09T04:51:42.475Z,58.00
2019-05-09T04:52:42.408Z,58.00
2019-05-09T04:53:42.343Z,58.10
2019-05-09T04:54:42.272Z,58.17
2019-05-09T04:55:42.204Z,58.36
2019-05-09T04:56:42.134Z,58.07
2019-05-09T04:57:42.065Z,58.07
2019-05-09T04:58:42.067Z,57.97
2019-05-09T04:59:41.931Z,58.17
2019-05-09T05:00:41.865Z,58.17
2019-05-09T05:01:41.794Z,58.26
2019-05-09T05:02:41.730Z,58.36
2019-05-09T05:03:41.660Z,58.00
2019-05-09T05:04:41.592Z,58.20
2019-05-09T05:05:41.525Z,58.20
2019-05-09T05:06:41.455Z,57.90
2019-05-09T05:07:41.390Z,58.20
2019-05-09T05:08:41.320Z,58.29
2019-05-09T05:09:41.254Z,58.10
2019-05-09T05:10:41.183Z,58.20
2019-05-09T05:11:41.116Z,58.20
2019-05-09T05:12:41.046Z,58.20
2019-05-09T05:13:40.990Z,58.20
2019-05-09T05:14:40.920Z,58.00
2019-05-09T05:15:40.846Z,57.90
2019-05-09T05:16:40.801Z,58.29
2019-05-09T05:17:40.709Z,57.90
2019-05-09T05:18:40.642Z,58.00
2019-05-09T05:19:40.569Z,58.00
2019-05-09T05:20:40.501Z,57.90
2019-05-09T05:21:40.433Z,58.00
2019-05-09T05:22:40.377Z,58.20
2019-05-09T05:23:40.301Z,58.20
2019-05-09T05:24:40.246Z,58.29
2019-05-09T05:25:40.167Z,58.07
2019-05-09T05:26:40.102Z,58.36
2019-05-09T05:27:40.033Z,58.74
2019-05-09T05:28:39.960Z,59.12
2019-05-09T05:29:39.898Z,59.32
2019-05-09T05:30:39.845Z,59.03
2019-05-09T05:31:39.754Z,59.12
2019-05-09T05:32:39.685Z,59.03
2019-05-09T05:33:39.624Z,59.32
2019-05-09T05:34:39.559Z,58.84
2019-05-09T05:35:39.514Z,58.64
2019-05-09T05:36:39.445Z,58.74
2019-05-09T05:37:39.354Z,58.74
2019-05-09T05:38:39.284Z,59.61
2019-05-09T05:39:39.218Z,59.61
2019-05-09T05:40:45.556Z,59.41
2019-05-09T05:41:39.080Z,59.80
2019-05-09T05:42:39.151Z,59.61
2019-05-09T05:43:44.378Z,59.77
2019-05-09T05:44:38.882Z,59.96
2019-05-09T05:45:38.813Z,60.35
2019-05-09T05:46:38.746Z,60.44
2019-05-09T05:47:39.216Z,60.35
2019-05-09T05:48:38.644Z,60.25
2019-05-09T05:49:38.629Z,60.44
2019-05-09T05:50:38.472Z,61.30
2019-05-09T05:51:38.403Z,61.02
2019-05-09T05:52:38.338Z,61.49
2019-05-09T05:53:38.323Z,61.49
2019-05-09T05:54:38.208Z,61.40
2019-05-09T05:55:38.134Z,61.49
2019-05-09T05:56:38.294Z,61.40
2019-05-09T05:57:38.692Z,61.30
2019-05-09T05:58:38.629Z,61.02
2019-05-09T05:59:40.818Z,61.49
2019-05-09T06:00:37.871Z,61.02
2019-05-09T06:01:38.310Z,61.21
2019-05-09T06:02:38.511Z,60.53
2019-05-09T06:03:37.809Z,61.02
2019-05-09T06:04:38.245Z,60.92
2019-05-09T06:05:38.358Z,61.40
2019-05-09T06:06:37.584Z,61.21
2019-05-09T06:07:37.913Z,61.21
2019-05-09T06:08:38.088Z,61.59
2019-05-09T06:09:37.906Z,61.24
2019-05-09T06:10:37.756Z,60.18
2019-05-09T06:11:38.384Z,60.85
2019-05-09T06:12:38.082Z,59.99
2019-05-09T06:13:38.007Z,59.70
2019-05-09T06:14:37.852Z,59.54
2019-05-09T06:15:37.882Z,59.44
2019-05-09T06:16:37.736Z,59.44
2019-05-09T06:17:38.051Z,59.73
2019-05-09T06:18:38.437Z,59.64
2019-05-09T06:19:37.899Z,59.16
2019-05-09T06:20:38.564Z,58.87
2019-05-09T06:21:37.501Z,58.87
2019-05-09T06:22:38.194Z,58.77
2019-05-09T06:23:37.419Z,59.16
2019-05-09T06:24:38.439Z,59.06
2019-05-09T06:25:38.746Z,58.39
2019-05-09T06:26:37.343Z,58.13
2019-05-09T06:27:37.553Z,58.32
2019-05-09T06:28:37.661Z,57.75
2019-05-09T06:29:38.383Z,58.22
2019-05-09T06:30:40.898Z,58.32
2019-05-09T06:31:37.622Z,57.93
2019-05-09T06:32:35.640Z,58.03
2019-05-09T06:33:35.588Z,58.22
2019-05-09T06:34:39.607Z,57.45
2019-05-09T06:35:37.977Z,57.07
2019-05-09T06:36:38.637Z,57.75
2019-05-09T06:37:35.301Z,57.84
2019-05-09T06:38:37.575Z,58.13
2019-05-09T06:39:35.179Z,58.32
2019-05-09T06:40:35.116Z,57.84
2019-05-09T06:41:35.038Z,58.22
2019-05-09T06:42:37.845Z,57.75
2019-05-09T06:43:34.905Z,57.65
2019-05-09T06:44:34.837Z,57.55
2019-05-09T06:45:34.770Z,57.65
2019-05-09T06:46:34.701Z,57.39
2019-05-09T06:47:34.639Z,57.39
2019-05-09T06:48:34.569Z,57.29
2019-05-09T06:49:34.526Z,56.52
2019-05-09T06:50:34.669Z,56.14
2019-05-09T06:51:34.443Z,55.91
2019-05-09T06:52:34.305Z,56.23
2019-05-09T06:53:34.237Z,56.81
2019-05-09T06:54:34.176Z,56.81
2019-05-09T06:55:34.112Z,56.33
2019-05-09T06:56:34.042Z,56.62
2019-05-09T06:57:33.973Z,55.85
2019-05-09T06:58:38.117Z,55.76
2019-05-09T06:59:33.842Z,55.76
2019-05-09T07:00:33.864Z,55.85
2019-05-09T07:01:34.791Z,56.04
2019-05-09T07:02:33.660Z,55.94
2019-05-09T07:03:34.589Z,56.59
2019-05-09T07:04:34.305Z,56.40
2019-05-09T07:05:34.816Z,56.40
2019-05-09T07:06:34.454Z,55.82
2019-05-09T07:07:33.317Z,56.40
2019-05-09T07:08:34.638Z,56.62
2019-05-09T07:09:33.183Z,55.76
2019-05-09T07:10:33.401Z,55.27
2019-05-09T07:11:34.548Z,55.76
2019-05-09T07:12:33.484Z,55.94
2019-05-09T07:13:32.918Z,55.76
2019-05-09T07:14:35.891Z,55.56
2019-05-09T07:15:32.799Z,55.56
2019-05-09T07:16:33.061Z,55.66
2019-05-09T07:17:33.170Z,55.76
2019-05-09T07:18:32.586Z,55.59
2019-05-09T07:19:32.526Z,55.78
2019-05-09T07:20:32.452Z,55.68
2019-05-09T07:21:32.394Z,55.59
2019-05-09T07:22:32.323Z,55.76
2019-05-09T07:23:32.258Z,55.76
2019-05-09T07:24:32.197Z,56.30
2019-05-09T07:25:32.124Z,56.23
2019-05-09T07:26:32.068Z,56.33
2019-05-09T07:27:31.990Z,56.43
2019-05-09T07:28:31.931Z,55.78
2019-05-09T07:29:31.865Z,55.40
2019-05-09T07:30:31.805Z,55.01
2019-05-09T07:31:31.734Z,54.43
2019-05-09T07:32:31.671Z,55.20
2019-05-09T07:33:31.602Z,55.33
2019-05-09T07:34:31.539Z,55.20
2019-05-09T07:35:31.473Z,55.01
2019-05-09T07:36:31.435Z,55.11
2019-05-09T07:37:31.341Z,55.43
2019-05-09T07:38:31.286Z,55.62
2019-05-09T07:39:31.212Z,54.72
2019-05-09T07:40:31.143Z,55.88
2019-05-09T07:41:33.586Z,54.91
2019-05-09T07:42:31.015Z,55.40
2019-05-09T07:43:30.949Z,55.68
2019-05-09T07:44:45.251Z,55.40
2019-05-09T07:45:30.814Z,54.63
2019-05-09T07:46:30.751Z,55.01
2019-05-09T07:47:30.693Z,55.11
2019-05-09T07:48:30.621Z,54.94
2019-05-09T07:49:30.594Z,55.04
2019-05-09T07:50:30.492Z,54.65
2019-05-09T07:51:30.422Z,54.56
2019-05-09T07:52:30.390Z,55.13
2019-05-09T07:53:30.293Z,54.94
2019-05-09T07:54:30.231Z,54.56
2019-05-09T07:55:30.160Z,54.08
2019-05-09T07:56:30.098Z,54.08
2019-05-09T07:57:30.036Z,53.59
2019-05-09T07:58:29.971Z,53.98
2019-05-09T07:59:29.905Z,53.59
2019-05-09T08:00:29.843Z,53.98
2019-05-09T08:01:29.772Z,53.50
2019-05-09T08:02:29.718Z,53.21
2019-05-09T08:03:29.643Z,53.02
2019-05-09T08:04:29.580Z,52.44
2019-05-09T08:05:29.512Z,52.54
2019-05-09T08:06:29.452Z,52.63
2019-05-09T08:07:29.383Z,52.73
2019-05-09T08:08:29.319Z,52.54
2019-05-09T08:09:29.253Z,53.33
2019-05-09T08:10:32.944Z,52.85
2019-05-09T08:11:32.178Z,52.95
2019-05-09T08:12:29.059Z,52.73
2019-05-09T08:13:29.121Z,52.99
2019-05-09T08:14:28.945Z,53.74
2019-05-09T08:15:28.860Z,53.57
2019-05-09T08:16:28.796Z,53.28
2019-05-09T08:17:28.835Z,53.16
2019-05-09T08:18:28.667Z,53.66
2019-05-09T08:19:28.600Z,53.57
2019-05-09T08:20:28.537Z,53.76
2019-05-09T08:21:28.468Z,53.40
2019-05-09T08:22:32.449Z,53.19
2019-05-09T08:23:28.353Z,52.83
2019-05-09T08:24:28.320Z,52.80
2019-05-09T08:25:28.221Z,52.89
2019-05-09T08:26:30.044Z,53.92
2019-05-09T08:27:30.084Z,54.12
2019-05-09T08:28:28.206Z,54.24
2019-05-09T08:29:28.338Z,54.53
2019-05-09T08:30:35.374Z,54.24
2019-05-09T08:31:28.210Z,54.24
2019-05-09T08:32:28.577Z,53.66
2019-05-09T08:33:28.710Z,53.98
2019-05-09T08:34:28.431Z,53.78
2019-05-09T08:35:28.061Z,53.96
2019-05-09T08:36:28.137Z,54.17
2019-05-09T08:37:28.269Z,53.57
2019-05-09T08:38:28.209Z,53.66
2019-05-09T08:39:27.823Z,53.96
2019-05-09T08:40:28.419Z,53.66
2019-05-09T08:41:29.091Z,53.31
2019-05-09T08:42:29.206Z,52.83
2019-05-09T08:43:28.322Z,53.47
2019-05-09T08:44:30.435Z,53.19
2019-05-09T08:45:30.359Z,53.86
2019-05-09T08:46:28.585Z,53.66
2019-05-09T08:47:27.793Z,53.76
2019-05-09T08:48:28.297Z,53.96
2019-05-09T08:49:28.639Z,53.86
2019-05-09T08:50:28.095Z,53.76
2019-05-09T08:51:35.285Z,53.69
2019-05-09T08:52:28.611Z,53.78
2019-05-09T08:53:27.609Z,53.59
2019-05-09T08:54:27.391Z,53.02
2019-05-09T08:55:27.828Z,52.83
2019-05-09T08:56:28.355Z,52.83
2019-05-09T08:57:28.652Z,52.83
2019-05-09T08:58:27.750Z,52.92
2019-05-09T08:59:27.608Z,53.62
2019-05-09T09:00:28.094Z,53.14
2019-05-09T09:01:35.221Z,53.14
2019-05-09T09:02:28.176Z,53.33
2019-05-09T09:03:25.730Z,52.85
2019-05-09T09:04:25.664Z,52.49
2019-05-09T09:05:25.607Z,52.49
2019-05-09T09:06:27.712Z,52.37
2019-05-09T09:07:25.472Z,52.37
2019-05-09T09:08:25.406Z,51.92
2019-05-09T09:09:25.342Z,52.30
2019-05-09T09:10:25.274Z,52.30
2019-05-09T09:11:25.209Z,52.01
2019-05-09T09:12:33.113Z,51.65
2019-05-09T09:13:25.086Z,51.62
2019-05-09T09:14:25.017Z,52.01
2019-05-09T09:15:46.679Z,52.01
2019-05-09T09:16:24.918Z,52.11
2019-05-09T09:17:24.816Z,52.11
2019-05-09T09:18:24.756Z,52.30
2019-05-09T09:19:24.704Z,52.01
2019-05-09T09:20:24.625Z,52.01
2019-05-09T09:21:24.558Z,52.20
2019-05-09T09:22:24.492Z,51.92
2019-05-09T09:23:39.132Z,52.37
2019-05-09T09:24:24.364Z,52.47
2019-05-09T09:25:24.300Z,52.20
2019-05-09T09:26:24.234Z,52.20
2019-05-09T09:27:24.166Z,52.11
2019-05-09T09:28:24.133Z,52.20
2019-05-09T09:29:24.052Z,52.49
2019-05-09T09:30:25.167Z,52.40
2019-05-09T09:31:23.910Z,52.13
2019-05-09T09:32:23.851Z,51.75
2019-05-09T09:33:23.780Z,51.26
2019-05-09T09:34:26.593Z,51.17
2019-05-09T09:35:23.652Z,51.26
2019-05-09T09:36:23.588Z,51.14
2019-05-09T09:37:23.550Z,51.14
2019-05-09T09:38:23.457Z,51.14
2019-05-09T09:39:23.394Z,51.17
2019-05-09T09:40:23.332Z,51.24
2019-05-09T09:41:23.289Z,51.26
2019-05-09T09:42:23.198Z,51.46
2019-05-09T09:43:23.131Z,51.84
2019-05-09T09:44:23.072Z,51.65
2019-05-09T09:45:23.007Z,51.53
2019-05-09T09:46:22.942Z,52.23
2019-05-09T09:47:23.577Z,51.75
2019-05-09T09:48:22.810Z,51.26
2019-05-09T09:49:22.747Z,51.46
2019-05-09T09:50:22.715Z,51.36
2019-05-09T09:51:22.619Z,51.46
2019-05-09T09:52:22.557Z,51.84
2019-05-09T09:53:22.488Z,52.42
2019-05-09T09:54:22.430Z,51.65
2019-05-09T09:55:22.365Z,51.94
2019-05-09T09:56:22.693Z,52.23
2019-05-09T09:57:22.244Z,51.36
2019-05-09T09:58:22.165Z,51.82
2019-05-09T09:59:22.101Z,52.40
2019-05-09T10:00:22.038Z,52.40
2019-05-09T10:01:21.971Z,52.69
2019-05-09T10:02:21.911Z,52.97
2019-05-09T10:03:21.924Z,52.78
2019-05-09T10:04:24.352Z,52.49
2019-05-09T10:05:21.777Z,52.42
2019-05-09T10:06:21.651Z,52.23
2019-05-09T10:07:21.587Z,52.33
2019-05-09T10:08:21.530Z,50.98
2019-05-09T10:09:21.460Z,50.81
2019-05-09T10:10:21.393Z,50.71
2019-05-09T10:11:21.323Z,51.26
2019-05-09T10:12:21.305Z,51.07
2019-05-09T10:13:21.317Z,51.17
2019-05-09T10:14:21.142Z,50.98
2019-05-09T10:15:21.072Z,51.65
2019-05-09T10:16:29.142Z,52.23
2019-05-09T10:17:21.635Z,52.13
2019-05-09T10:18:20.897Z,52.42
2019-05-09T10:19:20.806Z,52.69
2019-05-09T10:20:20.750Z,52.49
2019-05-09T10:21:20.679Z,52.42
2019-05-09T10:22:23.859Z,52.23
2019-05-09T10:23:21.657Z,51.94
2019-05-09T10:24:20.487Z,51.75
2019-05-09T10:25:20.425Z,51.94
2019-05-09T10:26:20.354Z,52.23
2019-05-09T10:27:20.292Z,52.01
2019-05-09T10:28:21.652Z,51.75
2019-05-09T10:29:20.161Z,51.56
2019-05-09T10:30:20.128Z,51.36
2019-05-09T10:31:20.041Z,51.65
2019-05-09T10:32:19.974Z,51.26
2019-05-09T10:33:19.900Z,51.36
2019-05-09T10:34:19.839Z,51.56
2019-05-09T10:35:19.777Z,51.46
2019-05-09T10:36:19.705Z,51.53
2019-05-09T10:37:19.661Z,52.11
2019-05-09T10:38:19.581Z,52.33
2019-05-09T10:39:19.523Z,51.56
2019-05-09T10:40:19.451Z,51.43
2019-05-09T10:41:19.382Z,51.62
2019-05-09T10:42:19.326Z,51.65
2019-05-09T10:43:34.053Z,51.07
2019-05-09T10:44:19.190Z,50.88
2019-05-09T10:45:19.121Z,51.07
2019-05-09T10:46:19.626Z,52.13
2019-05-09T10:47:19.518Z,50.59
2019-05-09T10:48:23.917Z,50.78
2019-05-09T10:49:18.869Z,50.98
2019-05-09T10:50:18.800Z,50.62
2019-05-09T10:51:18.791Z,50.62
2019-05-09T10:52:18.674Z,50.32
2019-05-09T10:53:18.606Z,50.62
2019-05-09T10:54:18.751Z,50.71
2019-05-09T10:55:18.469Z,50.69
2019-05-09T10:56:18.887Z,50.59
2019-05-09T10:57:18.339Z,51.07
2019-05-09T10:58:20.220Z,50.78
2019-05-09T10:59:18.424Z,50.59
2019-05-09T11:00:18.478Z,50.98
2019-05-09T11:01:18.619Z,51.29
2019-05-09T11:02:18.021Z,49.75
2019-05-09T11:03:18.161Z,50.04
2019-05-09T11:04:18.104Z,50.52
2019-05-09T11:05:18.431Z,52.76
2019-05-09T11:06:18.615Z,51.03
2019-05-09T11:07:18.263Z,49.96
2019-05-09T11:08:18.455Z,48.81
2019-05-09T11:09:18.392Z,49.39
2019-05-09T11:10:25.941Z,49.58
2019-05-09T11:11:18.166Z,49.19
2019-05-09T11:12:18.067Z,48.90
2019-05-09T11:13:18.147Z,48.90
2019-05-09T11:14:32.162Z,49.19
2019-05-09T11:15:17.733Z,48.81
2019-05-09T11:16:18.339Z,49.19
2019-05-09T11:17:20.888Z,48.13
2019-05-09T11:18:18.575Z,48.23
2019-05-09T11:19:18.378Z,48.23
2019-05-09T11:20:19.341Z,48.52
2019-05-09T11:21:19.219Z,49.02
2019-05-09T11:22:18.326Z,48.64
2019-05-09T11:23:19.216Z,48.71
2019-05-09T11:24:18.751Z,48.23
2019-05-09T11:25:16.520Z,48.03
2019-05-09T11:26:17.925Z,48.03
2019-05-09T11:27:18.443Z,48.71
2019-05-09T11:28:17.910Z,48.13
2019-05-09T11:29:18.603Z,49.00
2019-05-09T11:30:17.625Z,50.26
2019-05-09T11:31:18.363Z,48.81
2019-05-09T11:32:17.905Z,48.13
2019-05-09T11:33:18.187Z,48.25
2019-05-09T11:34:15.966Z,48.06
2019-05-09T11:35:17.667Z,47.45
2019-05-09T11:36:20.826Z,48.13
2019-05-09T11:37:15.747Z,48.13
2019-05-09T11:38:29.607Z,48.13
2019-05-09T11:39:25.433Z,48.61
2019-05-09T11:40:15.549Z,48.90
2019-05-09T11:41:18.888Z,48.61
2019-05-09T11:42:17.701Z,48.13
2019-05-09T11:43:17.956Z,48.03
2019-05-09T11:44:15.289Z,47.94
2019-05-09T11:45:17.711Z,48.16
2019-05-09T11:46:17.739Z,47.48
2019-05-09T11:47:31.413Z,47.09
2019-05-09T11:48:15.027Z,46.13
2019-05-09T11:49:17.829Z,46.88
2019-05-09T11:50:14.897Z,47.45
2019-05-09T11:51:14.835Z,47.45
2019-05-09T11:52:14.777Z,48.33
2019-05-09T11:53:14.701Z,48.13
2019-05-09T11:54:16.563Z,48.33
2019-05-09T11:55:28.792Z,48.23
2019-05-09T11:56:14.517Z,47.96
2019-05-09T11:57:14.443Z,48.06
2019-05-09T11:58:14.379Z,47.67
2019-05-09T11:59:14.316Z,47.45
2019-05-09T12:00:14.263Z,47.85
2019-05-09T12:01:14.183Z,47.75
2019-05-09T12:02:14.141Z,47.75
2019-05-09T12:03:14.056Z,47.75
2019-05-09T12:04:13.991Z,46.78
2019-05-09T12:05:13.946Z,46.88
2019-05-09T12:06:15.993Z,46.97
2019-05-09T12:07:13.798Z,46.88
2019-05-09T12:08:13.734Z,46.71
2019-05-09T12:09:14.793Z,46.23
2019-05-09T12:10:13.603Z,47.00
2019-05-09T12:11:13.536Z,47.09
2019-05-09T12:12:13.474Z,47.29
2019-05-09T12:13:13.413Z,46.61
2019-05-09T12:14:13.355Z,46.81
2019-05-09T12:15:13.277Z,46.13
2019-05-09T12:16:13.235Z,47.00
2019-05-09T12:17:13.201Z,46.90
2019-05-09T12:18:13.079Z,46.90
2019-05-09T12:19:13.019Z,46.61
2019-05-09T12:20:13.719Z,47.00
2019-05-09T12:21:12.887Z,46.83
2019-05-09T12:22:12.827Z,46.15
2019-05-09T12:23:12.759Z,47.02
2019-05-09T12:24:12.696Z,45.48
2019-05-09T12:25:12.639Z,45.18
2019-05-09T12:26:12.569Z,45.18
2019-05-09T12:27:12.505Z,45.67
2019-05-09T12:28:12.438Z,44.80
2019-05-09T12:29:12.371Z,44.90
2019-05-09T12:30:12.307Z,44.42
2019-05-09T12:31:12.262Z,44.22
2019-05-09T12:32:12.176Z,44.12
2019-05-09T12:33:12.111Z,43.93
2019-05-09T12:34:12.073Z,44.03
2019-05-09T12:35:11.985Z,43.26
2019-05-09T12:36:11.920Z,43.16
2019-05-09T12:37:11.865Z,43.45
2019-05-09T12:38:11.795Z,43.18
2019-05-09T12:39:11.722Z,43.16
2019-05-09T12:40:11.659Z,42.77
2019-05-09T12:41:11.620Z,43.35
2019-05-09T12:42:11.531Z,44.32
2019-05-09T12:43:11.473Z,44.80
2019-05-09T12:44:11.407Z,45.18
2019-05-09T12:45:11.339Z,45.09
2019-05-09T12:46:11.275Z,44.12
2019-05-09T12:47:11.211Z,44.03
2019-05-09T12:48:15.385Z,43.93
2019-05-09T12:49:11.081Z,44.32
2019-05-09T12:50:11.017Z,44.03
2019-05-09T12:51:10.976Z,44.22
2019-05-09T12:52:10.885Z,44.03
2019-05-09T12:53:10.846Z,43.85
2019-05-09T12:54:10.754Z,43.57
2019-05-09T12:55:12.794Z,44.05
2019-05-09T12:56:10.633Z,44.53
2019-05-09T12:57:10.564Z,44.92
2019-05-09T12:58:10.508Z,44.92
2019-05-09T12:59:10.439Z,45.31
2019-05-09T13:00:10.369Z,44.34
2019-05-09T13:01:10.305Z,43.57
2019-05-09T13:02:10.239Z,44.05
2019-05-09T13:03:10.180Z,43.88
2019-05-09T13:04:10.113Z,43.10
2019-05-09T13:05:10.068Z,42.62
2019-05-09T13:06:10.040Z,42.62
2019-05-09T13:07:09.919Z,42.62
2019-05-09T13:08:10.477Z,45.72
2019-05-09T13:09:09.793Z,44.26
2019-05-09T13:10:09.733Z,43.78
2019-05-09T13:11:09.662Z,44.36
2019-05-09T13:12:09.598Z,44.92
2019-05-09T13:13:09.533Z,44.65
2019-05-09T13:14:10.180Z,44.07
2019-05-09T13:15:09.423Z,43.01
2019-05-09T13:16:10.925Z,43.30
2019-05-09T13:17:09.282Z,43.95
2019-05-09T13:18:21.304Z,44.15
2019-05-09T13:19:09.144Z,43.95
2019-05-09T13:20:09.089Z,44.05
2019-05-09T13:21:09.015Z,44.24
2019-05-09T13:22:08.964Z,45.14
2019-05-09T13:23:09.072Z,44.24
2019-05-09T13:24:08.835Z,43.88
2019-05-09T13:25:09.595Z,43.98
2019-05-09T13:26:08.695Z,44.07
2019-05-09T13:27:08.673Z,44.36
2019-05-09T13:28:08.560Z,43.47
2019-05-09T13:29:08.497Z,43.49
2019-05-09T13:30:08.565Z,43.88
2019-05-09T13:31:08.395Z,44.36
2019-05-09T13:32:08.960Z,42.72
2019-05-09T13:33:10.964Z,42.82
2019-05-09T13:34:08.279Z,43.78
2019-05-09T13:35:08.121Z,43.49
2019-05-09T13:36:09.249Z,43.88
2019-05-09T13:37:09.058Z,43.49
2019-05-09T13:38:08.746Z,43.20
2019-05-09T13:39:08.760Z,43.40
2019-05-09T13:40:08.557Z,43.20
2019-05-09T13:41:08.553Z,43.49
2019-05-09T13:42:08.331Z,43.20
2019-05-09T13:43:08.958Z,43.01
2019-05-09T13:44:12.982Z,43.01
2019-05-09T13:45:08.324Z,42.62
2019-05-09T13:46:09.020Z,43.01
2019-05-09T13:47:10.612Z,42.70
2019-05-09T13:48:24.019Z,43.10
2019-05-09T13:49:12.482Z,43.01
2019-05-09T13:50:08.922Z,43.01
2019-05-09T13:51:07.701Z,43.10
2019-05-09T13:52:09.876Z,42.62
2019-05-09T13:53:07.607Z,42.62
2019-05-09T13:54:06.884Z,43.51
2019-05-09T13:55:08.720Z,44.96
2019-05-09T13:56:08.415Z,43.90
2019-05-09T13:57:08.632Z,43.23
2019-05-09T13:58:07.518Z,43.99
2019-05-09T13:59:08.337Z,43.63
2019-05-09T14:00:08.726Z,43.92